createdAt,value
2018-11-01T00:00:00.063Z,9.69
2018-11-01T00:01:00.041Z,9.69
2018-11-01T00:02:00.034Z,9.68
2018-11-01T00:03:00.028Z,9.58
2018-11-01T00:04:00.022Z,9.56
2018-11-01T00:05:00.016Z,9.56
2018-11-01T00:06:00.010Z,9.55
2018-11-01T00:07:00.006Z,9.54
2018-11-01T00:07:59.998Z,9.59
2018-11-01T00:08:59.990Z,9.55
2018-11-01T00:09:59.984Z,9.58
2018-11-01T00:10:59.978Z,9.51
2018-11-01T00:11:59.973Z,9.54
2018-11-01T00:12:59.965Z,9.54
2018-11-01T00:13:59.960Z,9.54
2018-11-01T00:14:59.952Z,9.43
2018-11-01T00:15:59.947Z,9.51
2018-11-01T00:16:59.941Z,9.55
2018-11-01T00:17:59.946Z,9.66
2018-11-01T00:18:59.928Z,9.65
2018-11-01T00:19:59.921Z,9.72
2018-11-01T00:20:59.914Z,9.72
2018-11-01T00:21:59.908Z,9.64
2018-11-01T00:22:59.902Z,9.61
2018-11-01T00:23:59.895Z,9.54
2018-11-01T00:24:59.891Z,9.51
2018-11-01T00:25:59.881Z,9.54
2018-11-01T00:26:59.878Z,9.44
2018-11-01T00:27:59.871Z,9.46
2018-11-01T00:28:59.866Z,9.39
2018-11-01T00:29:59.856Z,9.39
2018-11-01T00:30:59.849Z,9.46
2018-11-01T00:31:59.846Z,9.34
2018-11-01T00:32:59.838Z,9.39
2018-11-01T00:33:59.831Z,9.32
2018-11-01T00:34:59.825Z,9.34
2018-11-01T00:35:59.817Z,9.47
2018-11-01T00:36:59.810Z,9.34
2018-11-01T00:37:59.803Z,9.44
2018-11-01T00:38:59.797Z,9.51
2018-11-01T00:39:59.791Z,9.51
2018-11-01T00:40:59.784Z,9.56
2018-11-01T00:41:59.778Z,9.48
2018-11-01T00:42:59.771Z,9.58
2018-11-01T00:43:59.764Z,9.40
2018-11-01T00:44:59.759Z,9.46
2018-11-01T00:45:59.751Z,9.51
2018-11-01T00:46:59.744Z,9.43
2018-11-01T00:47:59.738Z,9.44
2018-11-01T00:48:59.731Z,9.55
2018-11-01T00:49:59.730Z,9.46
2018-11-01T00:50:59.718Z,9.50
2018-11-01T00:51:59.711Z,9.50
2018-11-01T00:52:59.705Z,9.58
2018-11-01T00:53:59.699Z,9.51
2018-11-01T00:54:59.694Z,9.51
2018-11-01T00:55:59.686Z,9.55
2018-11-01T00:56:59.682Z,9.48
2018-11-01T00:57:59.674Z,9.50
2018-11-01T00:58:59.666Z,9.64
2018-11-01T00:59:59.658Z,9.61
2018-11-01T01:00:59.655Z,9.64
2018-11-01T01:01:59.645Z,9.65
2018-11-01T01:02:59.642Z,9.69
2018-11-01T01:03:59.632Z,9.66
2018-11-01T01:04:59.629Z,9.68
2018-11-01T01:05:59.618Z,9.66
2018-11-01T01:06:59.612Z,9.62
2018-11-01T01:07:59.606Z,9.69
2018-11-01T01:08:59.600Z,9.74
2018-11-01T01:09:59.593Z,9.69
2018-11-01T01:10:59.586Z,9.68
2018-11-01T01:11:59.580Z,9.64
2018-11-01T01:12:59.574Z,9.66
2018-11-01T01:13:59.567Z,9.68
2018-11-01T01:14:59.560Z,9.72
2018-11-01T01:15:59.554Z,9.66
2018-11-01T01:16:59.549Z,9.68
2018-11-01T01:17:59.541Z,9.69
2018-11-01T01:18:59.786Z,9.73
2018-11-01T01:19:59.528Z,9.74
2018-11-01T01:20:59.523Z,9.69
2018-11-01T01:21:59.516Z,9.74
2018-11-01T01:22:59.510Z,9.69
2018-11-01T01:23:59.502Z,9.76
2018-11-01T01:24:59.495Z,9.72
2018-11-01T01:25:59.489Z,9.74
2018-11-01T01:26:59.515Z,9.79
2018-11-01T01:27:59.476Z,9.69
2018-11-01T01:28:59.469Z,9.76
2018-11-01T01:29:59.462Z,9.76
2018-11-01T01:30:59.457Z,9.77
2018-11-01T01:31:59.451Z,9.77
2018-11-01T01:32:59.443Z,9.73
2018-11-01T01:33:59.445Z,9.83
2018-11-01T01:34:59.430Z,9.92
2018-11-01T01:35:59.424Z,9.87
2018-11-01T01:36:59.421Z,9.84
2018-11-01T01:37:59.410Z,9.76
2018-11-01T01:38:59.403Z,9.82
2018-11-01T01:39:59.399Z,9.79
2018-11-01T01:40:59.393Z,9.83
2018-11-01T01:41:59.384Z,9.79
2018-11-01T01:42:59.377Z,9.86
2018-11-01T01:43:59.370Z,9.84
2018-11-01T01:44:59.364Z,9.86
2018-11-01T01:45:59.357Z,9.94
2018-11-01T01:46:59.352Z,9.84
2018-11-01T01:47:59.346Z,10.01
2018-11-01T01:48:59.338Z,9.98
2018-11-01T01:49:59.332Z,9.98
2018-11-01T01:50:59.326Z,9.99
2018-11-01T01:51:59.318Z,9.98
2018-11-01T01:52:59.316Z,10.01
2018-11-01T01:53:59.305Z,9.98
2018-11-01T01:54:59.298Z,10.12
2018-11-01T01:55:59.292Z,10.12
2018-11-01T01:56:59.286Z,10.15
2018-11-01T01:57:59.278Z,10.17
2018-11-01T01:58:59.272Z,10.23
2018-11-01T01:59:59.267Z,10.23
2018-11-01T02:00:59.261Z,10.25
2018-11-01T02:01:59.258Z,10.23
2018-11-01T02:02:59.248Z,10.30
2018-11-01T02:03:59.241Z,10.26
2018-11-01T02:04:59.235Z,10.25
2018-11-01T02:05:59.227Z,10.23
2018-11-01T02:06:59.221Z,10.33
2018-11-01T02:07:59.217Z,10.35
2018-11-01T02:08:59.209Z,10.31
2018-11-01T02:09:59.202Z,10.35
2018-11-01T02:10:59.200Z,10.38
2018-11-01T02:11:59.190Z,10.33
2018-11-01T02:12:59.184Z,10.38
2018-11-01T02:13:59.176Z,10.33
2018-11-01T02:14:59.171Z,10.40
2018-11-01T02:15:59.165Z,10.40
2018-11-01T02:16:59.159Z,10.38
2018-11-01T02:17:59.152Z,10.41
2018-11-01T02:18:59.146Z,10.37
2018-11-01T02:19:59.140Z,10.42
2018-11-01T02:20:59.135Z,10.40
2018-11-01T02:21:59.127Z,10.35
2018-11-01T02:22:59.121Z,10.34
2018-11-01T02:23:59.116Z,10.35
2018-11-01T02:24:59.110Z,10.37
2018-11-01T02:25:59.103Z,10.33
2018-11-01T02:26:59.096Z,10.37
2018-11-01T02:27:59.090Z,10.33
2018-11-01T02:28:59.084Z,10.26
2018-11-01T02:29:59.077Z,10.22
2018-11-01T02:30:59.080Z,10.37
2018-11-01T02:31:59.065Z,10.46
2018-11-01T02:32:59.060Z,10.49
2018-11-01T02:33:59.053Z,10.41
2018-11-01T02:34:59.047Z,10.59
2018-11-01T02:35:59.040Z,10.57
2018-11-01T02:36:59.033Z,10.44
2018-11-01T02:37:59.038Z,10.46
2018-11-01T02:38:59.022Z,10.48
2018-11-01T02:39:59.017Z,10.48
2018-11-01T02:40:59.009Z,10.51
2018-11-01T02:41:59.003Z,10.49
2018-11-01T02:42:58.997Z,10.53
2018-11-01T02:43:58.991Z,10.42
2018-11-01T02:44:58.985Z,10.48
2018-11-01T02:45:58.979Z,10.51
2018-11-01T02:46:58.972Z,10.42
2018-11-01T02:47:58.971Z,10.40
2018-11-01T02:48:58.959Z,10.34
2018-11-01T02:49:58.953Z,10.38
2018-11-01T02:50:58.948Z,10.46
2018-11-01T02:51:58.942Z,10.40
2018-11-01T02:52:58.936Z,10.46
2018-11-01T02:53:58.928Z,10.51
2018-11-01T02:54:58.925Z,10.44
2018-11-01T02:55:58.917Z,10.35
2018-11-01T02:56:58.912Z,10.49
2018-11-01T02:57:58.903Z,10.48
2018-11-01T02:58:58.899Z,10.31
2018-11-01T02:59:58.894Z,10.48
2018-11-01T03:00:58.890Z,10.41
2018-11-01T03:01:58.880Z,10.40
2018-11-01T03:02:58.874Z,10.42
2018-11-01T03:03:58.868Z,10.41
2018-11-01T03:04:58.862Z,10.40
2018-11-01T03:05:58.855Z,10.40
2018-11-01T03:06:58.853Z,10.31
2018-11-01T03:07:58.867Z,10.22
2018-11-01T03:08:58.842Z,10.15
2018-11-01T03:09:58.831Z,10.12
2018-11-01T03:10:58.824Z,10.22
2018-11-01T03:11:58.819Z,10.13
2018-11-01T03:12:58.813Z,10.04
2018-11-01T03:13:58.808Z,9.95
2018-11-01T03:14:58.799Z,10.02
2018-11-01T03:15:58.798Z,10.01
2018-11-01T03:16:58.790Z,10.01
2018-11-01T03:17:58.780Z,10.04
2018-11-01T03:18:58.774Z,9.94
2018-11-01T03:19:58.768Z,9.84
2018-11-01T03:20:58.762Z,9.84
2018-11-01T03:21:58.754Z,9.89
2018-11-01T03:22:58.747Z,9.97
2018-11-01T03:23:58.742Z,9.91
2018-11-01T03:24:58.735Z,9.77
2018-11-01T03:25:58.729Z,9.89
2018-11-01T03:26:58.723Z,9.73
2018-11-01T03:27:58.715Z,9.77
2018-11-01T03:28:58.710Z,9.76
2018-11-01T03:29:58.702Z,9.82
2018-11-01T03:30:58.702Z,9.76
2018-11-01T03:31:58.691Z,9.77
2018-11-01T03:32:58.684Z,9.64
2018-11-01T03:33:58.676Z,9.68
2018-11-01T03:34:58.670Z,9.74
2018-11-01T03:35:58.662Z,9.62
2018-11-01T03:36:58.657Z,9.62
2018-11-01T03:37:58.687Z,9.55
2018-11-01T03:38:58.736Z,9.54
2018-11-01T03:39:58.637Z,9.50
2018-11-01T03:40:58.630Z,9.46
2018-11-01T03:41:58.622Z,9.47
2018-11-01T03:42:58.618Z,9.37
2018-11-01T03:43:58.609Z,9.32
2018-11-01T03:44:58.605Z,9.39
2018-11-01T03:45:58.597Z,9.29
2018-11-01T03:46:58.589Z,9.25
2018-11-01T03:47:58.583Z,9.14
2018-11-01T03:48:58.577Z,9.21
2018-11-01T03:49:58.571Z,9.13
2018-11-01T03:50:58.562Z,9.25
2018-11-01T03:51:58.628Z,9.16
2018-11-01T03:52:58.550Z,9.29
2018-11-01T03:53:58.616Z,9.25
2018-11-01T03:54:58.536Z,9.10
2018-11-01T03:55:58.530Z,9.10
2018-11-01T03:56:58.523Z,9.16
2018-11-01T03:57:58.516Z,9.36
2018-11-01T03:58:58.509Z,9.08
2018-11-01T03:59:58.502Z,9.10
2018-11-01T04:00:58.537Z,9.13
2018-11-01T04:01:58.489Z,9.11
2018-11-01T04:02:58.481Z,9.14
2018-11-01T04:03:58.613Z,9.08
2018-11-01T04:04:58.469Z,9.03
2018-11-01T04:05:58.461Z,9.06
2018-11-01T04:06:58.455Z,9.02
2018-11-01T04:07:58.450Z,8.97
2018-11-01T04:08:58.443Z,9.02
2018-11-01T04:09:58.435Z,9.04
2018-11-01T04:10:58.427Z,9.00
2018-11-01T04:11:58.424Z,8.99
2018-11-01T04:12:58.414Z,9.02
2018-11-01T04:13:58.409Z,9.00
2018-11-01T04:14:58.418Z,8.97
2018-11-01T04:15:58.393Z,9.02
2018-11-01T04:16:58.456Z,8.97
2018-11-01T04:17:58.380Z,8.89
2018-11-01T04:18:58.374Z,9.00
2018-11-01T04:19:58.368Z,8.89
2018-11-01T04:20:58.361Z,8.87
2018-11-01T04:21:58.352Z,8.82
2018-11-01T04:22:58.345Z,8.82
2018-11-01T04:23:58.340Z,8.84
2018-11-01T04:24:58.332Z,8.89
2018-11-01T04:25:58.327Z,8.92
2018-11-01T04:26:58.318Z,8.82
2018-11-01T04:27:58.318Z,8.85
2018-11-01T04:28:58.317Z,8.71
2018-11-01T04:29:58.298Z,8.76
2018-11-01T04:30:58.291Z,8.74
2018-11-01T04:31:58.288Z,8.81
2018-11-01T04:32:58.324Z,8.70
2018-11-01T04:33:58.272Z,8.66
2018-11-01T04:34:58.265Z,8.69
2018-11-01T04:35:58.259Z,8.76
2018-11-01T04:36:58.249Z,8.64
2018-11-01T04:37:58.241Z,8.66
2018-11-01T04:38:58.235Z,8.64
2018-11-01T04:39:58.230Z,8.64
2018-11-01T04:40:58.223Z,8.66
2018-11-01T04:41:58.215Z,8.64
2018-11-01T04:42:58.217Z,8.53
2018-11-01T04:43:58.206Z,8.52
2018-11-01T04:44:58.218Z,8.52
2018-11-01T04:45:58.186Z,8.46
2018-11-01T04:46:58.189Z,8.44
2018-11-01T04:47:58.268Z,8.36
2018-11-01T04:48:58.168Z,8.34
2018-11-01T04:49:58.160Z,8.28
2018-11-01T04:50:58.154Z,8.23
2018-11-01T04:51:58.151Z,8.10
2018-11-01T04:52:58.140Z,8.13
2018-11-01T04:53:58.133Z,8.15
2018-11-01T04:54:58.126Z,8.12
2018-11-01T04:55:58.119Z,8.09
2018-11-01T04:56:58.112Z,8.09
2018-11-01T04:57:58.105Z,8.03
2018-11-01T04:58:58.098Z,8.15
2018-11-01T04:59:58.096Z,8.01
2018-11-01T05:00:58.086Z,8.06
2018-11-01T05:01:58.077Z,8.08
2018-11-01T05:02:58.071Z,8.01
2018-11-01T05:03:58.063Z,8.00
2018-11-01T05:04:58.177Z,8.00
2018-11-01T05:05:58.069Z,7.93
2018-11-01T05:06:58.102Z,7.91
2018-11-01T05:07:58.037Z,7.88
2018-11-01T05:08:58.030Z,7.97
2018-11-01T05:09:58.021Z,8.03
2018-11-01T05:10:58.014Z,7.97
2018-11-01T05:11:58.007Z,7.95
2018-11-01T05:12:58.093Z,7.97
2018-11-01T05:13:57.997Z,7.88
2018-11-01T05:14:57.985Z,7.91
2018-11-01T05:15:57.978Z,7.77
2018-11-01T05:16:57.971Z,7.79
2018-11-01T05:17:57.964Z,7.79
2018-11-01T05:18:57.957Z,7.79
2018-11-01T05:19:57.967Z,7.72
2018-11-01T05:20:57.943Z,7.77
2018-11-01T05:21:57.935Z,7.70
2018-11-01T05:22:57.927Z,7.75
2018-11-01T05:23:57.925Z,7.72
2018-11-01T05:24:57.915Z,7.67
2018-11-01T05:25:57.977Z,7.73
2018-11-01T05:26:57.901Z,7.72
2018-11-01T05:27:57.893Z,7.66
2018-11-01T05:28:57.886Z,7.66
2018-11-01T05:29:57.878Z,7.69
2018-11-01T05:30:57.871Z,7.54
2018-11-01T05:31:57.865Z,7.54
2018-11-01T05:32:57.858Z,7.56
2018-11-01T05:33:57.862Z,7.51
2018-11-01T05:34:57.843Z,7.47
2018-11-01T05:35:57.838Z,7.57
2018-11-01T05:36:57.830Z,7.50
2018-11-01T05:37:57.840Z,7.53
2018-11-01T05:38:57.817Z,7.45
2018-11-01T05:39:57.813Z,7.51
2018-11-01T05:40:57.803Z,7.39
2018-11-01T05:41:57.795Z,7.45
2018-11-01T05:42:57.785Z,7.47
2018-11-01T05:43:57.779Z,7.45
2018-11-01T05:44:57.772Z,7.42
2018-11-01T05:45:57.765Z,7.40
2018-11-01T05:46:57.757Z,7.36
2018-11-01T05:47:57.751Z,7.33
2018-11-01T05:48:57.743Z,7.32
2018-11-01T05:49:57.736Z,7.39
2018-11-01T05:50:57.728Z,7.24
2018-11-01T05:51:57.722Z,7.25
2018-11-01T05:52:57.715Z,7.21
2018-11-01T05:53:57.706Z,7.18
2018-11-01T05:54:57.700Z,7.17
2018-11-01T05:55:57.695Z,7.21
2018-11-01T05:56:57.686Z,7.15
2018-11-01T05:57:57.678Z,7.17
2018-11-01T05:58:57.672Z,7.15
2018-11-01T05:59:57.734Z,7.15
2018-11-01T06:00:57.657Z,7.23
2018-11-01T06:01:57.648Z,7.21
2018-11-01T06:02:57.642Z,7.15
2018-11-01T06:03:57.634Z,7.20
2018-11-01T06:04:57.628Z,7.18
2018-11-01T06:05:57.619Z,7.23
2018-11-01T06:06:57.610Z,7.21
2018-11-01T06:07:57.604Z,7.14
2018-11-01T06:08:57.598Z,7.24
2018-11-01T06:09:57.589Z,7.23
2018-11-01T06:10:57.581Z,7.20
2018-11-01T06:11:57.575Z,7.17
2018-11-01T06:12:57.568Z,7.18
2018-11-01T06:13:57.559Z,7.21
2018-11-01T06:14:57.558Z,7.18
2018-11-01T06:15:57.545Z,7.17
2018-11-01T06:16:57.538Z,7.23
2018-11-01T06:17:57.531Z,7.20
2018-11-01T06:18:57.524Z,7.24
2018-11-01T06:19:57.515Z,7.18
2018-11-01T06:20:57.508Z,7.23
2018-11-01T06:21:57.501Z,7.23
2018-11-01T06:22:57.494Z,7.18
2018-11-01T06:23:57.487Z,7.15
2018-11-01T06:24:57.480Z,7.17
2018-11-01T06:25:57.477Z,7.06
2018-11-01T06:26:57.466Z,7.11
2018-11-01T06:27:57.458Z,7.06
2018-11-01T06:28:57.451Z,7.07
2018-11-01T06:29:57.442Z,7.11
2018-11-01T06:30:57.436Z,7.06
2018-11-01T06:31:57.432Z,7.03
2018-11-01T06:32:57.422Z,7.05
2018-11-01T06:33:57.414Z,7.02
2018-11-01T06:34:57.407Z,7.05
2018-11-01T06:35:57.400Z,6.99
2018-11-01T06:36:57.392Z,6.93
2018-11-01T06:37:57.383Z,6.93
2018-11-01T06:38:57.377Z,6.99
2018-11-01T06:39:57.370Z,6.99
2018-11-01T06:40:57.362Z,6.95
2018-11-01T06:41:57.356Z,6.93
2018-11-01T06:42:57.347Z,6.82
2018-11-01T06:43:57.342Z,6.92
2018-11-01T06:44:57.376Z,7.11
2018-11-01T06:45:57.324Z,7.11
2018-11-01T06:46:57.319Z,7.14
2018-11-01T06:47:57.310Z,6.97
2018-11-01T06:48:57.304Z,6.97
2018-11-01T06:49:57.294Z,7.00
2018-11-01T06:50:57.287Z,7.10
2018-11-01T06:51:57.286Z,7.17
2018-11-01T06:52:57.273Z,7.05
2018-11-01T06:53:57.264Z,7.11
2018-11-01T06:54:57.257Z,7.07
2018-11-01T06:55:57.248Z,7.00
2018-11-01T06:56:57.242Z,6.97
2018-11-01T06:57:57.234Z,6.96
2018-11-01T06:58:57.295Z,6.99
2018-11-01T06:59:57.220Z,6.99
2018-11-01T07:00:57.213Z,6.84
2018-11-01T07:01:57.205Z,6.95
2018-11-01T07:02:57.198Z,6.84
2018-11-01T07:03:57.190Z,6.84
2018-11-01T07:04:57.184Z,6.88
2018-11-01T07:05:57.175Z,6.87
2018-11-01T07:06:57.168Z,6.89
2018-11-01T07:07:57.167Z,6.72
2018-11-01T07:08:57.153Z,6.70
2018-11-01T07:09:57.145Z,6.77
2018-11-01T07:10:57.138Z,6.77
2018-11-01T07:11:57.130Z,6.79
2018-11-01T07:12:57.124Z,6.81
2018-11-01T07:13:57.116Z,6.75
2018-11-01T07:14:57.109Z,6.70
2018-11-01T07:15:57.101Z,6.70
2018-11-01T07:16:57.185Z,6.75
2018-11-01T07:17:57.087Z,6.72
2018-11-01T07:18:57.079Z,6.66
2018-11-01T07:19:57.072Z,6.77
2018-11-01T07:20:57.064Z,6.72
2018-11-01T07:21:57.057Z,6.75
2018-11-01T07:22:57.049Z,6.69
2018-11-01T07:23:57.043Z,6.74
2018-11-01T07:24:57.034Z,6.70
2018-11-01T07:25:57.084Z,6.75
2018-11-01T07:26:57.021Z,6.69
2018-11-01T07:27:57.013Z,6.81
2018-11-01T07:28:57.007Z,6.70
2018-11-01T07:29:57.001Z,6.79
2018-11-01T07:30:56.992Z,6.81
2018-11-01T07:31:56.988Z,6.74
2018-11-01T07:32:57.049Z,6.84
2018-11-01T07:33:56.969Z,6.81
2018-11-01T07:34:56.963Z,6.92
2018-11-01T07:35:56.957Z,6.92
2018-11-01T07:36:56.948Z,6.78
2018-11-01T07:37:56.941Z,6.97
2018-11-01T07:38:56.935Z,6.95
2018-11-01T07:39:57.008Z,6.97
2018-11-01T07:40:56.920Z,7.07
2018-11-01T07:41:56.919Z,7.02
2018-11-01T07:42:56.908Z,7.06
2018-11-01T07:43:56.906Z,7.11
2018-11-01T07:44:56.893Z,7.11
2018-11-01T07:45:56.883Z,7.15
2018-11-01T07:46:56.877Z,7.17
2018-11-01T07:47:56.875Z,7.24
2018-11-01T07:48:56.865Z,7.28
2018-11-01T07:49:56.858Z,7.24
2018-11-01T07:50:56.850Z,7.35
2018-11-01T07:51:56.844Z,7.33
2018-11-01T07:52:56.869Z,7.35
2018-11-01T07:53:56.829Z,7.42
2018-11-01T07:54:56.822Z,7.48
2018-11-01T07:55:56.817Z,7.54
2018-11-01T07:56:56.811Z,7.61
2018-11-01T07:57:56.803Z,7.57
2018-11-01T07:58:56.796Z,7.67
2018-11-01T07:59:56.790Z,7.72
2018-11-01T08:00:56.785Z,7.77
2018-11-01T08:01:56.777Z,7.83
2018-11-01T08:02:56.772Z,7.94
2018-11-01T08:03:56.767Z,7.98
2018-11-01T08:04:56.758Z,8.03
2018-11-01T08:05:56.893Z,7.95
2018-11-01T08:06:56.745Z,8.15
2018-11-01T08:07:56.738Z,7.98
2018-11-01T08:08:56.734Z,8.10
2018-11-01T08:09:56.727Z,8.13
2018-11-01T08:10:56.719Z,8.16
2018-11-01T08:11:56.714Z,8.23
2018-11-01T08:12:56.708Z,8.28
2018-11-01T08:13:56.703Z,8.27
2018-11-01T08:14:56.696Z,8.33
2018-11-01T08:15:56.690Z,8.36
2018-11-01T08:16:56.687Z,8.33
2018-11-01T08:17:56.677Z,8.38
2018-11-01T08:18:56.671Z,8.49
2018-11-01T08:19:56.801Z,8.46
2018-11-01T08:20:56.856Z,8.49
2018-11-01T08:21:56.656Z,8.56
2018-11-01T08:22:56.646Z,8.64
2018-11-01T08:23:56.643Z,8.70
2018-11-01T08:24:56.638Z,8.64
2018-11-01T08:25:56.627Z,8.67
2018-11-01T08:26:56.621Z,8.76
2018-11-01T08:27:56.702Z,8.76
2018-11-01T08:28:56.610Z,8.89
2018-11-01T08:29:56.603Z,8.81
2018-11-01T08:30:56.598Z,8.92
2018-11-01T08:31:56.592Z,8.95
2018-11-01T08:32:56.589Z,9.13
2018-11-01T08:33:56.580Z,9.16
2018-11-01T08:34:56.574Z,9.13
2018-11-01T08:35:56.570Z,9.29
2018-11-01T08:36:56.564Z,9.34
2018-11-01T08:37:56.557Z,9.40
2018-11-01T08:38:56.552Z,9.44
2018-11-01T08:39:56.547Z,9.44
2018-11-01T08:40:56.556Z,9.58
2018-11-01T08:41:56.535Z,9.54
2018-11-01T08:42:56.564Z,9.66
2018-11-01T08:43:56.524Z,9.72
2018-11-01T08:44:56.519Z,9.74
2018-11-01T08:45:56.512Z,9.80
2018-11-01T08:46:56.507Z,9.73
2018-11-01T08:47:56.502Z,9.86
2018-11-01T08:48:56.499Z,9.84
2018-11-01T08:49:56.527Z,9.86
2018-11-01T08:50:56.486Z,9.84
2018-11-01T08:51:56.481Z,9.87
2018-11-01T08:52:56.475Z,10.02
2018-11-01T08:53:56.469Z,9.99
2018-11-01T08:54:56.464Z,10.09
2018-11-01T08:55:56.469Z,10.19
2018-11-01T08:56:56.454Z,10.15
2018-11-01T08:57:56.451Z,10.23
2018-11-01T08:58:56.443Z,10.37
2018-11-01T08:59:56.439Z,10.35
2018-11-01T09:00:56.433Z,10.31
2018-11-01T09:01:56.429Z,10.41
2018-11-01T09:02:56.422Z,10.40
2018-11-01T09:03:56.437Z,10.48
2018-11-01T09:04:56.413Z,10.53
2018-11-01T09:05:56.408Z,10.46
2018-11-01T09:06:56.405Z,10.48
2018-11-01T09:07:56.417Z,10.46
2018-11-01T09:08:56.395Z,10.60
2018-11-01T09:09:56.389Z,10.59
2018-11-01T09:10:56.386Z,10.69
2018-11-01T09:11:56.382Z,10.76
2018-11-01T09:12:56.510Z,10.76
2018-11-01T09:13:56.373Z,10.64
2018-11-01T09:14:56.366Z,10.72
2018-11-01T09:15:56.362Z,10.75
2018-11-01T09:16:56.359Z,10.82
2018-11-01T09:17:56.352Z,10.84
2018-11-01T09:18:56.349Z,10.97
2018-11-01T09:19:56.346Z,11.02
2018-11-01T09:20:56.340Z,11.15
2018-11-01T09:21:56.335Z,11.11
2018-11-01T09:22:56.330Z,11.11
2018-11-01T09:23:56.326Z,11.07
2018-11-01T09:24:56.322Z,11.26
2018-11-01T09:25:56.318Z,11.25
2018-11-01T09:26:56.452Z,11.32
2018-11-01T09:27:56.309Z,11.27
2018-11-01T09:28:56.306Z,11.41
2018-11-01T09:29:56.300Z,11.37
2018-11-01T09:30:56.298Z,11.35
2018-11-01T09:31:56.292Z,11.35
2018-11-01T09:32:56.316Z,11.41
2018-11-01T09:33:56.285Z,11.54
2018-11-01T09:34:56.279Z,11.51
2018-11-01T09:35:56.277Z,11.51
2018-11-01T09:36:56.275Z,11.59
2018-11-01T09:37:56.269Z,11.57
2018-11-01T09:38:56.265Z,11.55
2018-11-01T09:39:56.260Z,11.65
2018-11-01T09:40:56.257Z,11.63
2018-11-01T09:41:56.250Z,11.65
2018-11-01T09:42:56.246Z,11.69
2018-11-01T09:43:56.243Z,11.77
2018-11-01T09:44:56.238Z,11.83
2018-11-01T09:45:56.310Z,11.77
2018-11-01T09:46:56.555Z,11.73
2018-11-01T09:47:56.234Z,11.73
2018-11-01T09:48:56.223Z,11.80
2018-11-01T09:49:56.219Z,11.84
2018-11-01T09:50:56.216Z,11.86
2018-11-01T09:51:56.211Z,11.84
2018-11-01T09:52:56.208Z,11.87
2018-11-01T09:53:56.207Z,11.86
2018-11-01T09:54:56.199Z,11.87
2018-11-01T09:55:56.371Z,11.86
2018-11-01T09:56:56.193Z,11.81
2018-11-01T09:57:56.192Z,11.94
2018-11-01T09:58:56.184Z,11.94
2018-11-01T09:59:56.181Z,11.97
2018-11-01T10:00:56.219Z,11.97
2018-11-01T10:01:56.176Z,11.97
2018-11-01T10:02:56.169Z,12.04
2018-11-01T10:03:56.166Z,12.07
2018-11-01T10:04:56.162Z,12.10
2018-11-01T10:05:56.188Z,12.12
2018-11-01T10:06:56.225Z,12.10
2018-11-01T10:07:56.151Z,12.03
2018-11-01T10:08:56.147Z,12.02
2018-11-01T10:09:56.143Z,12.03
2018-11-01T10:10:56.140Z,12.07
2018-11-01T10:11:56.136Z,12.06
2018-11-01T10:12:56.132Z,12.20
2018-11-01T10:13:56.128Z,12.10
2018-11-01T10:14:56.170Z,11.99
2018-11-01T10:15:56.347Z,11.99
2018-11-01T10:16:56.550Z,11.91
2018-11-01T10:17:56.503Z,11.97
2018-11-01T10:18:56.109Z,11.97
2018-11-01T10:19:56.107Z,12.04
2018-11-01T10:20:56.103Z,11.91
2018-11-01T10:21:56.168Z,12.02
2018-11-01T10:22:56.119Z,12.06
2018-11-01T10:23:56.090Z,12.15
2018-11-01T10:24:56.087Z,12.12
2018-11-01T10:25:56.084Z,12.13
2018-11-01T10:26:56.080Z,12.13
2018-11-01T10:27:56.075Z,12.18
2018-11-01T10:28:56.073Z,12.27
2018-11-01T10:29:56.068Z,12.17
2018-11-01T10:30:56.064Z,12.24
2018-11-01T10:31:56.062Z,12.22
2018-11-01T10:32:56.061Z,12.31
2018-11-01T10:33:56.082Z,12.28
2018-11-01T10:34:56.049Z,12.28
2018-11-01T10:35:56.047Z,12.25
2018-11-01T10:36:56.043Z,12.37
2018-11-01T10:37:56.039Z,12.37
2018-11-01T10:38:56.036Z,12.45
2018-11-01T10:39:56.032Z,12.49
2018-11-01T10:40:56.046Z,12.45
2018-11-01T10:41:56.024Z,12.49
2018-11-01T10:42:56.022Z,12.47
2018-11-01T10:43:56.019Z,12.49
2018-11-01T10:44:56.014Z,12.49
2018-11-01T10:45:56.010Z,12.53
2018-11-01T10:46:56.007Z,12.60
2018-11-01T10:47:56.004Z,12.62
2018-11-01T10:48:56.004Z,12.54
2018-11-01T10:49:55.997Z,12.55
2018-11-01T10:50:55.996Z,12.68
2018-11-01T10:51:55.990Z,12.67
2018-11-01T10:52:55.989Z,12.67
2018-11-01T10:53:56.086Z,12.55
2018-11-01T10:54:55.979Z,12.67
2018-11-01T10:55:55.975Z,12.61
2018-11-01T10:56:55.972Z,12.61
2018-11-01T10:57:55.968Z,12.61
2018-11-01T10:58:55.965Z,12.57
2018-11-01T10:59:55.983Z,12.61
2018-11-01T11:00:56.153Z,12.61
2018-11-01T11:01:55.954Z,12.65
2018-11-01T11:02:55.951Z,12.64
2018-11-01T11:03:55.948Z,12.60
2018-11-01T11:04:55.947Z,12.55
2018-11-01T11:05:55.941Z,12.61
2018-11-01T11:06:55.938Z,12.61
2018-11-01T11:07:55.934Z,12.64
2018-11-01T11:08:55.930Z,12.68
2018-11-01T11:09:55.927Z,12.72
2018-11-01T11:10:55.923Z,12.72
2018-11-01T11:11:55.920Z,12.79
2018-11-01T11:12:55.916Z,12.83
2018-11-01T11:13:55.912Z,12.87
2018-11-01T11:14:55.910Z,12.78
2018-11-01T11:15:55.906Z,12.85
2018-11-01T11:16:55.902Z,12.93
2018-11-01T11:17:55.902Z,12.87
2018-11-01T11:18:55.923Z,12.86
2018-11-01T11:19:55.987Z,12.85
2018-11-01T11:20:56.230Z,12.79
2018-11-01T11:21:55.886Z,12.83
2018-11-01T11:22:55.883Z,12.80
2018-11-01T11:23:55.881Z,12.86
2018-11-01T11:24:55.876Z,12.91
2018-11-01T11:25:55.877Z,12.94
2018-11-01T11:26:55.869Z,13.01
2018-11-01T11:27:55.868Z,12.97
2018-11-01T11:28:55.863Z,12.97
2018-11-01T11:29:55.903Z,12.80
2018-11-01T11:30:55.857Z,12.90
2018-11-01T11:31:55.852Z,12.94
2018-11-01T11:32:55.850Z,13.00
2018-11-01T11:33:55.846Z,12.95
2018-11-01T11:34:55.846Z,13.00
2018-11-01T11:35:55.917Z,12.93
2018-11-01T11:36:55.839Z,13.01
2018-11-01T11:37:55.833Z,12.91
2018-11-01T11:38:55.865Z,12.82
2018-11-01T11:39:55.831Z,12.86
2018-11-01T11:40:55.822Z,12.87
2018-11-01T11:41:55.817Z,12.75
2018-11-01T11:42:55.821Z,12.80
2018-11-01T11:43:55.814Z,12.73
2018-11-01T11:44:55.807Z,12.79
2018-11-01T11:45:55.807Z,12.73
2018-11-01T11:46:55.802Z,12.75
2018-11-01T11:47:55.801Z,12.76
2018-11-01T11:48:55.793Z,12.78
2018-11-01T11:49:55.789Z,12.80
2018-11-01T11:50:55.786Z,12.70
2018-11-01T11:51:55.782Z,12.67
2018-11-01T11:52:55.779Z,12.68
2018-11-01T11:53:55.774Z,12.75
2018-11-01T11:54:55.772Z,12.72
2018-11-01T11:55:55.768Z,12.73
2018-11-01T11:56:55.799Z,12.82
2018-11-01T11:57:55.759Z,12.75
2018-11-01T11:58:55.755Z,12.75
2018-11-01T11:59:55.752Z,12.73
2018-11-01T12:00:55.750Z,12.72
2018-11-01T12:01:55.744Z,12.68
2018-11-01T12:02:55.741Z,12.72
2018-11-01T12:03:55.740Z,12.76
2018-11-01T12:04:55.734Z,12.78
2018-11-01T12:05:55.790Z,12.67
2018-11-01T12:06:55.725Z,12.76
2018-11-01T12:07:55.726Z,12.64
2018-11-01T12:08:55.717Z,12.61
2018-11-01T12:09:55.714Z,12.65
2018-11-01T12:10:55.713Z,12.64
2018-11-01T12:11:55.707Z,12.67
2018-11-01T12:12:55.704Z,12.62
2018-11-01T12:13:55.721Z,12.70
2018-11-01T12:14:55.694Z,12.73
2018-11-01T12:15:55.691Z,12.79
2018-11-01T12:16:55.688Z,12.72
2018-11-01T12:17:55.702Z,12.72
2018-11-01T12:18:55.693Z,12.64
2018-11-01T12:19:55.677Z,12.65
2018-11-01T12:20:55.672Z,12.72
2018-11-01T12:21:55.668Z,12.62
2018-11-01T12:22:55.702Z,12.55
2018-11-01T12:23:55.659Z,12.57
2018-11-01T12:24:55.656Z,12.55
2018-11-01T12:25:55.751Z,12.49
2018-11-01T12:26:55.648Z,12.45
2018-11-01T12:27:55.643Z,12.43
2018-11-01T12:28:55.726Z,12.46
2018-11-01T12:29:55.677Z,12.57
2018-11-01T12:30:55.631Z,12.49
2018-11-01T12:31:55.627Z,12.49
2018-11-01T12:32:55.623Z,12.53
2018-11-01T12:33:55.619Z,12.47
2018-11-01T12:34:55.638Z,12.45
2018-11-01T12:35:55.626Z,12.47
2018-11-01T12:36:55.608Z,12.49
2018-11-01T12:37:55.604Z,12.49
2018-11-01T12:38:55.604Z,12.50
2018-11-01T12:39:55.629Z,12.55
2018-11-01T12:40:55.636Z,12.49
2018-11-01T12:41:55.637Z,12.47
2018-11-01T12:42:55.628Z,12.70
2018-11-01T12:43:55.606Z,12.67
2018-11-01T12:44:55.584Z,12.61
2018-11-01T12:45:55.572Z,12.55
2018-11-01T12:46:55.566Z,12.55
2018-11-01T12:47:55.563Z,12.57
2018-11-01T12:48:55.580Z,12.54
2018-11-01T12:49:55.721Z,12.50
2018-11-01T12:50:55.551Z,12.50
2018-11-01T12:51:55.556Z,12.45
2018-11-01T12:52:55.542Z,12.47
2018-11-01T12:53:55.537Z,12.46
2018-11-01T12:54:55.534Z,12.49
2018-11-01T12:55:55.529Z,12.42
2018-11-01T12:56:55.528Z,12.49
2018-11-01T12:57:55.520Z,12.47
2018-11-01T12:58:55.517Z,12.47
2018-11-01T12:59:55.513Z,12.47
2018-11-01T13:00:55.508Z,12.47
2018-11-01T13:01:55.503Z,12.47
2018-11-01T13:02:55.499Z,12.45
2018-11-01T13:03:55.495Z,12.39
2018-11-01T13:04:55.491Z,12.43
2018-11-01T13:05:55.486Z,12.49
2018-11-01T13:06:55.487Z,12.47